sensor_id;sensor_type;location;lat;lon;timestamp;P1;durP1;ratioP1;P2;durP2;ratioP2
69542;SDS011;56762;49.494;11.768;2022-11-20T00:01:03;18.52;;;8.07;;
69542;SDS011;56762;49.494;11.768;2022-11-20T00:03:32;16.73;;;7.57;;
69542;SDS011;56762;49.494;11.768;2022-11-20T00:06:00;18.00;;;8.65;;
69542;SDS011;56762;49.494;11.768;2022-11-20T00:08:28;16.27;;;7.57;;
69542;SDS011;56762;49.494;11.768;2022-11-20T00:10:56;17.90;;;7.97;;
69542;SDS011;56762;49.494;11.768;2022-11-20T00:13:23;18.48;;;7.82;;
69542;SDS011;56762;49.494;11.768;2022-11-20T00:15:57;20.95;;;9.02;;
69542;SDS011;56762;49.494;11.768;2022-11-20T00:18:26;20.35;;;8.52;;
69542;SDS011;56762;49.494;11.768;2022-11-20T00:20:53;20.97;;;8.73;;
69542;SDS011;56762;49.494;11.768;2022-11-20T00:23:27;20.25;;;8.23;;
69542;SDS011;56762;49.494;11.768;2022-11-20T00:25:55;20.27;;;9.00;;
69542;SDS011;56762;49.494;11.768;2022-11-20T00:28:23;19.75;;;7.85;;
69542;SDS011;56762;49.494;11.768;2022-11-20T00:30:50;19.25;;;9.10;;
69542;SDS011;56762;49.494;11.768;2022-11-20T00:33:19;19.03;;;8.60;;
69542;SDS011;56762;49.494;11.768;2022-11-20T00:35:47;20.23;;;8.18;;
69542;SDS011;56762;49.494;11.768;2022-11-20T00:38:15;20.52;;;8.73;;
69542;SDS011;56762;49.494;11.768;2022-11-20T00:40:43;18.33;;;8.00;;
69542;SDS011;56762;49.494;11.768;2022-11-20T00:43:16;19.92;;;8.48;;
69542;SDS011;56762;49.494;11.768;2022-11-20T00:45:43;20.37;;;8.93;;
69542;SDS011;56762;49.494;11.768;2022-11-20T00:48:11;19.48;;;8.98;;
69542;SDS011;56762;49.494;11.768;2022-11-20T00:50:41;18.60;;;8.05;;
69542;SDS011;56762;49.494;11.768;2022-11-20T00:53:09;18.42;;;8.40;;
69542;SDS011;56762;49.494;11.768;2022-11-20T00:55:37;19.63;;;9.10;;
69542;SDS011;56762;49.494;11.768;2022-11-20T00:58:05;19.67;;;8.70;;
69542;SDS011;56762;49.494;11.768;2022-11-20T01:00:39;21.23;;;8.45;;
69542;SDS011;56762;49.494;11.768;2022-11-20T01:03:07;20.25;;;8.10;;
69542;SDS011;56762;49.494;11.768;2022-11-20T01:05:35;20.88;;;8.45;;
69542;SDS011;56762;49.494;11.768;2022-11-20T01:08:04;20.48;;;8.85;;
69542;SDS011;56762;49.494;11.768;2022-11-20T01:10:32;19.83;;;8.57;;
69542;SDS011;56762;49.494;11.768;2022-11-20T01:13:00;21.75;;;9.30;;
69542;SDS011;56762;49.494;11.768;2022-11-20T01:15:46;22.05;;;9.50;;
69542;SDS011;56762;49.494;11.768;2022-11-20T01:18:14;20.35;;;8.15;;
69542;SDS011;56762;49.494;11.768;2022-11-20T01:20:42;21.05;;;8.48;;
69542;SDS011;56762;49.494;11.768;2022-11-20T01:23:11;19.37;;;8.37;;
69542;SDS011;56762;49.494;11.768;2022-11-20T01:25:39;20.25;;;8.25;;
69542;SDS011;56762;49.494;11.768;2022-11-20T01:28:07;19.67;;;8.40;;
69542;SDS011;56762;49.494;11.768;2022-11-20T01:30:35;23.73;;;9.10;;
69542;SDS011;56762;49.494;11.768;2022-11-20T01:33:02;19.23;;;9.18;;
69542;SDS011;56762;49.494;11.768;2022-11-20T01:35:30;19.10;;;8.33;;
69542;SDS011;56762;49.494;11.768;2022-11-20T01:37:58;18.38;;;8.50;;
69542;SDS011;56762;49.494;11.768;2022-11-20T01:40:27;20.83;;;8.68;;
69542;SDS011;56762;49.494;11.768;2022-11-20T01:45:59;19.48;;;8.68;;
69542;SDS011;56762;49.494;11.768;2022-11-20T01:48:30;19.80;;;8.50;;
69542;SDS011;56762;49.494;11.768;2022-11-20T01:51:03;21.25;;;8.90;;
69542;SDS011;56762;49.494;11.768;2022-11-20T01:53:32;23.30;;;8.60;;
69542;SDS011;56762;49.494;11.768;2022-11-20T01:56:05;19.38;;;8.63;;
69542;SDS011;56762;49.494;11.768;2022-11-20T01:58:37;19.38;;;8.45;;
69542;SDS011;56762;49.494;11.768;2022-11-20T02:01:10;21.07;;;9.20;;
69542;SDS011;56762;49.494;11.768;2022-11-20T02:03:38;21.20;;;8.60;;
69542;SDS011;56762;49.494;11.768;2022-11-20T02:06:08;21.48;;;8.65;;
69542;SDS011;56762;49.494;11.768;2022-11-20T02:08:40;21.75;;;9.23;;
69542;SDS011;56762;49.494;11.768;2022-11-20T02:11:09;20.10;;;8.93;;
69542;SDS011;56762;49.494;11.768;2022-11-20T02:13:36;21.63;;;8.80;;
69542;SDS011;56762;49.494;11.768;2022-11-20T02:16:13;21.30;;;8.93;;
69542;SDS011;56762;49.494;11.768;2022-11-20T02:18:44;22.77;;;9.32;;
69542;SDS011;56762;49.494;11.768;2022-11-20T02:21:14;19.23;;;8.18;;
69542;SDS011;56762;49.494;11.768;2022-11-20T02:23:55;19.58;;;8.45;;
69542;SDS011;56762;49.494;11.768;2022-11-20T02:26:43;17.07;;;7.23;;
69542;SDS011;56762;49.494;11.768;2022-11-20T02:29:16;20.95;;;8.25;;
69542;SDS011;56762;49.494;11.768;2022-11-20T02:31:50;20.48;;;8.52;;
69542;SDS011;56762;49.494;11.768;2022-11-20T02:34:18;20.67;;;9.10;;
69542;SDS011;56762;49.494;11.768;2022-11-20T02:36:46;21.25;;;8.70;;
69542;SDS011;56762;49.494;11.768;2022-11-20T02:39:18;21.20;;;8.77;;
69542;SDS011;56762;49.494;11.768;2022-11-20T02:41:48;18.67;;;7.95;;
69542;SDS011;56762;49.494;11.768;2022-11-20T02:44:16;22.40;;;8.93;;
69542;SDS011;56762;49.494;11.768;2022-11-20T02:46:43;19.60;;;8.38;;
69542;SDS011;56762;49.494;11.768;2022-11-20T02:49:11;21.58;;;9.38;;
69542;SDS011;56762;49.494;11.768;2022-11-20T02:51:39;21.03;;;8.30;;
69542;SDS011;56762;49.494;11.768;2022-11-20T02:54:06;20.00;;;8.95;;
69542;SDS011;56762;49.494;11.768;2022-11-20T02:56:35;19.73;;;8.27;;
69542;SDS011;56762;49.494;11.768;2022-11-20T02:59:04;20.80;;;9.13;;
69542;SDS011;56762;49.494;11.768;2022-11-20T03:01:32;19.10;;;7.68;;
69542;SDS011;56762;49.494;11.768;2022-11-20T03:04:01;21.70;;;9.07;;
69542;SDS011;56762;49.494;11.768;2022-11-20T03:06:29;23.25;;;9.43;;
69542;SDS011;56762;49.494;11.768;2022-11-20T03:08:56;19.95;;;8.57;;
69542;SDS011;56762;49.494;11.768;2022-11-20T03:11:24;19.85;;;8.32;;
69542;SDS011;56762;49.494;11.768;2022-11-20T03:13:55;23.65;;;9.25;;
69542;SDS011;56762;49.494;11.768;2022-11-20T03:16:23;22.97;;;8.57;;
69542;SDS011;56762;49.494;11.768;2022-11-20T03:18:51;18.52;;;8.40;;
69542;SDS011;56762;49.494;11.768;2022-11-20T03:21:19;21.63;;;9.05;;
69542;SDS011;56762;49.494;11.768;2022-11-20T03:23:47;21.35;;;8.95;;
69542;SDS011;56762;49.494;11.768;2022-11-20T03:26:16;20.40;;;8.57;;
69542;SDS011;56762;49.494;11.768;2022-11-20T03:28:45;20.60;;;8.70;;
69542;SDS011;56762;49.494;11.768;2022-11-20T03:31:16;22.40;;;9.48;;
69542;SDS011;56762;49.494;11.768;2022-11-20T03:33:45;20.50;;;8.70;;
69542;SDS011;56762;49.494;11.768;2022-11-20T03:36:14;20.10;;;8.82;;
69542;SDS011;56762;49.494;11.768;2022-11-20T03:38:43;19.85;;;8.93;;
69542;SDS011;56762;49.494;11.768;2022-11-20T03:41:13;20.03;;;8.73;;
69542;SDS011;56762;49.494;11.768;2022-11-20T03:43:46;22.90;;;9.32;;
69542;SDS011;56762;49.494;11.768;2022-11-20T03:46:17;21.63;;;8.85;;
69542;SDS011;56762;49.494;11.768;2022-11-20T03:48:45;20.92;;;9.95;;
69542;SDS011;56762;49.494;11.768;2022-11-20T03:51:18;23.70;;;9.38;;
69542;SDS011;56762;49.494;11.768;2022-11-20T03:53:47;22.67;;;9.30;;
69542;SDS011;56762;49.494;11.768;2022-11-20T03:56:17;20.63;;;9.23;;
69542;SDS011;56762;49.494;11.768;2022-11-20T03:58:46;22.38;;;8.65;;
69542;SDS011;56762;49.494;11.768;2022-11-20T04:01:14;20.35;;;8.63;;
69542;SDS011;56762;49.494;11.768;2022-11-20T04:03:45;22.55;;;9.00;;
69542;SDS011;56762;49.494;11.768;2022-11-20T04:06:14;21.50;;;9.70;;
69542;SDS011;56762;49.494;11.768;2022-11-20T04:08:46;20.40;;;9.20;;
69542;SDS011;56762;49.494;11.768;2022-11-20T04:11:20;22.45;;;9.60;;
69542;SDS011;56762;49.494;11.768;2022-11-20T04:13:49;18.98;;;8.10;;
69542;SDS011;56762;49.494;11.768;2022-11-20T04:16:20;20.55;;;9.20;;
69542;SDS011;56762;49.494;11.768;2022-11-20T04:18:51;19.70;;;9.07;;
69542;SDS011;56762;49.494;11.768;2022-11-20T04:21:20;19.38;;;8.40;;
69542;SDS011;56762;49.494;11.768;2022-11-20T04:23:49;19.80;;;8.90;;
69542;SDS011;56762;49.494;11.768;2022-11-20T04:26:19;21.42;;;8.85;;
69542;SDS011;56762;49.494;11.768;2022-11-20T04:28:48;22.17;;;9.35;;
69542;SDS011;56762;49.494;11.768;2022-11-20T04:31:17;21.17;;;9.13;;
69542;SDS011;56762;49.494;11.768;2022-11-20T04:33:47;25.05;;;9.65;;
69542;SDS011;56762;49.494;11.768;2022-11-20T04:36:16;38.13;;;14.23;;
69542;SDS011;56762;49.494;11.768;2022-11-20T04:38:45;35.88;;;13.63;;
69542;SDS011;56762;49.494;11.768;2022-11-20T04:41:22;26.88;;;11.25;;
69542;SDS011;56762;49.494;11.768;2022-11-20T04:43:52;21.23;;;9.40;;
69542;SDS011;56762;49.494;11.768;2022-11-20T04:46:26;22.63;;;9.50;;
69542;SDS011;56762;49.494;11.768;2022-11-20T04:48:56;23.10;;;9.30;;
69542;SDS011;56762;49.494;11.768;2022-11-20T04:51:24;20.83;;;8.60;;
69542;SDS011;56762;49.494;11.768;2022-11-20T04:53:52;23.70;;;9.35;;
69542;SDS011;56762;49.494;11.768;2022-11-20T04:56:19;25.30;;;10.27;;
69542;SDS011;56762;49.494;11.768;2022-11-20T04:58:47;19.42;;;8.88;;
69542;SDS011;56762;49.494;11.768;2022-11-20T05:01:17;19.67;;;8.98;;
69542;SDS011;56762;49.494;11.768;2022-11-20T05:03:46;23.17;;;10.25;;
69542;SDS011;56762;49.494;11.768;2022-11-20T05:06:16;22.33;;;9.23;;
69542;SDS011;56762;49.494;11.768;2022-11-20T05:08:45;22.17;;;9.50;;
69542;SDS011;56762;49.494;11.768;2022-11-20T05:11:14;20.77;;;9.48;;
69542;SDS011;56762;49.494;11.768;2022-11-20T05:13:42;22.05;;;9.93;;
69542;SDS011;56762;49.494;11.768;2022-11-20T05:16:11;18.38;;;8.30;;
69542;SDS011;56762;49.494;11.768;2022-11-20T05:18:41;21.35;;;9.60;;
69542;SDS011;56762;49.494;11.768;2022-11-20T05:21:09;21.37;;;9.10;;
69542;SDS011;56762;49.494;11.768;2022-11-20T05:23:39;23.80;;;9.68;;
69542;SDS011;56762;49.494;11.768;2022-11-20T05:26:12;23.80;;;9.57;;
69542;SDS011;56762;49.494;11.768;2022-11-20T05:28:42;21.45;;;9.95;;
69542;SDS011;56762;49.494;11.768;2022-11-20T05:31:11;23.15;;;10.02;;
69542;SDS011;56762;49.494;11.768;2022-11-20T05:33:40;20.90;;;9.53;;
69542;SDS011;56762;49.494;11.768;2022-11-20T05:36:09;19.98;;;9.23;;
69542;SDS011;56762;49.494;11.768;2022-11-20T05:38:40;22.15;;;9.27;;
69542;SDS011;56762;49.494;11.768;2022-11-20T05:41:09;20.80;;;9.30;;
69542;SDS011;56762;49.494;11.768;2022-11-20T05:43:38;23.17;;;10.45;;
69542;SDS011;56762;49.494;11.768;2022-11-20T05:46:07;19.90;;;9.37;;
69542;SDS011;56762;49.494;11.768;2022-11-20T05:48:37;19.60;;;8.88;;
69542;SDS011;56762;49.494;11.768;2022-11-20T05:51:06;21.70;;;9.90;;
69542;SDS011;56762;49.494;11.768;2022-11-20T05:53:37;24.90;;;9.88;;
69542;SDS011;56762;49.494;11.768;2022-11-20T05:56:13;19.75;;;8.80;;
69542;SDS011;56762;49.494;11.768;2022-11-20T05:58:43;20.73;;;9.10;;
69542;SDS011;56762;49.494;11.768;2022-11-20T06:01:12;20.58;;;8.88;;
69542;SDS011;56762;49.494;11.768;2022-11-20T06:03:42;21.05;;;8.88;;
69542;SDS011;56762;49.494;11.768;2022-11-20T06:06:12;19.02;;;8.40;;
69542;SDS011;56762;49.494;11.768;2022-11-20T06:08:40;21.77;;;9.48;;
69542;SDS011;56762;49.494;11.768;2022-11-20T06:11:09;20.17;;;8.37;;
69542;SDS011;56762;49.494;11.768;2022-11-20T06:13:40;22.02;;;8.57;;
69542;SDS011;56762;49.494;11.768;2022-11-20T06:16:08;20.08;;;9.20;;
69542;SDS011;56762;49.494;11.768;2022-11-20T06:18:37;19.67;;;8.65;;
69542;SDS011;56762;49.494;11.768;2022-11-20T06:21:06;19.50;;;8.68;;
69542;SDS011;56762;49.494;11.768;2022-11-20T06:23:35;19.07;;;8.47;;
69542;SDS011;56762;49.494;11.768;2022-11-20T06:26:03;20.90;;;8.82;;
69542;SDS011;56762;49.494;11.768;2022-11-20T06:28:32;22.92;;;9.73;;
69542;SDS011;56762;49.494;11.768;2022-11-20T06:31:01;22.98;;;9.13;;
69542;SDS011;56762;49.494;11.768;2022-11-20T06:33:29;17.23;;;7.97;;
69542;SDS011;56762;49.494;11.768;2022-11-20T06:35:57;20.67;;;9.20;;
69542;SDS011;56762;49.494;11.768;2022-11-20T06:38:35;20.38;;;8.63;;
69542;SDS011;56762;49.494;11.768;2022-11-20T06:41:03;17.88;;;7.53;;
69542;SDS011;56762;49.494;11.768;2022-11-20T06:43:31;22.35;;;9.48;;
69542;SDS011;56762;49.494;11.768;2022-11-20T06:45:59;21.23;;;8.93;;
69542;SDS011;56762;49.494;11.768;2022-11-20T06:48:28;22.63;;;8.80;;
69542;SDS011;56762;49.494;11.768;2022-11-20T06:50:56;20.20;;;8.77;;
69542;SDS011;56762;49.494;11.768;2022-11-20T06:53:25;22.55;;;9.82;;
69542;SDS011;56762;49.494;11.768;2022-11-20T06:55:56;21.50;;;8.98;;
69542;SDS011;56762;49.494;11.768;2022-11-20T06:58:26;19.00;;;8.10;;
69542;SDS011;56762;49.494;11.768;2022-11-20T07:00:57;21.23;;;8.83;;
69542;SDS011;56762;49.494;11.768;2022-11-20T07:03:25;19.27;;;8.30;;
69542;SDS011;56762;49.494;11.768;2022-11-20T07:05:55;20.25;;;8.55;;
69542;SDS011;56762;49.494;11.768;2022-11-20T07:08:23;23.88;;;10.68;;
69542;SDS011;56762;49.494;11.768;2022-11-20T07:10:52;28.77;;;14.57;;
69542;SDS011;56762;49.494;11.768;2022-11-20T07:13:20;27.27;;;12.03;;
69542;SDS011;56762;49.494;11.768;2022-11-20T07:15:48;24.52;;;10.10;;
69542;SDS011;56762;49.494;11.768;2022-11-20T07:18:15;20.67;;;9.27;;
69542;SDS011;56762;49.494;11.768;2022-11-20T07:20:43;20.35;;;8.25;;
69542;SDS011;56762;49.494;11.768;2022-11-20T07:23:12;16.38;;;7.50;;
69542;SDS011;56762;49.494;11.768;2022-11-20T07:25:40;19.23;;;8.27;;
69542;SDS011;56762;49.494;11.768;2022-11-20T07:28:08;18.00;;;8.20;;
69542;SDS011;56762;49.494;11.768;2022-11-20T07:30:36;19.80;;;8.63;;
69542;SDS011;56762;49.494;11.768;2022-11-20T07:33:04;16.35;;;8.13;;
69542;SDS011;56762;49.494;11.768;2022-11-20T07:35:33;19.13;;;8.48;;
69542;SDS011;56762;49.494;11.768;2022-11-20T07:38:02;20.10;;;8.43;;
69542;SDS011;56762;49.494;11.768;2022-11-20T07:40:31;19.17;;;8.55;;
69542;SDS011;56762;49.494;11.768;2022-11-20T07:42:59;19.80;;;9.65;;
69542;SDS011;56762;49.494;11.768;2022-11-20T07:45:26;31.00;;;13.27;;
69542;SDS011;56762;49.494;11.768;2022-11-20T07:47:54;26.83;;;12.50;;
69542;SDS011;56762;49.494;11.768;2022-11-20T07:50:22;24.70;;;10.97;;
69542;SDS011;56762;49.494;11.768;2022-11-20T07:52:50;27.50;;;12.13;;
69542;SDS011;56762;49.494;11.768;2022-11-20T07:55:18;26.25;;;12.07;;
69542;SDS011;56762;49.494;11.768;2022-11-20T07:57:47;22.13;;;10.35;;
69542;SDS011;56762;49.494;11.768;2022-11-20T08:00:21;20.50;;;9.43;;
69542;SDS011;56762;49.494;11.768;2022-11-20T08:02:49;16.73;;;8.27;;
69542;SDS011;56762;49.494;11.768;2022-11-20T08:05:17;17.67;;;8.30;;
69542;SDS011;56762;49.494;11.768;2022-11-20T08:07:45;18.65;;;8.15;;
69542;SDS011;56762;49.494;11.768;2022-11-20T08:10:13;19.90;;;9.25;;
69542;SDS011;56762;49.494;11.768;2022-11-20T08:12:45;17.90;;;7.95;;
69542;SDS011;56762;49.494;11.768;2022-11-20T08:15:32;16.93;;;7.47;;
69542;SDS011;56762;49.494;11.768;2022-11-20T08:18:01;17.48;;;8.10;;
69542;SDS011;56762;49.494;11.768;2022-11-20T08:20:50;19.13;;;9.15;;
69542;SDS011;56762;49.494;11.768;2022-11-20T08:23:18;20.75;;;9.57;;
69542;SDS011;56762;49.494;11.768;2022-11-20T08:25:48;21.20;;;9.88;;
69542;SDS011;56762;49.494;11.768;2022-11-20T08:28:17;19.97;;;8.87;;
69542;SDS011;56762;49.494;11.768;2022-11-20T08:30:49;20.23;;;9.10;;
69542;SDS011;56762;49.494;11.768;2022-11-20T08:33:18;18.92;;;8.27;;
69542;SDS011;56762;49.494;11.768;2022-11-20T08:35:46;20.90;;;8.48;;
69542;SDS011;56762;49.494;11.768;2022-11-20T08:38:14;21.23;;;9.27;;
69542;SDS011;56762;49.494;11.768;2022-11-20T08:40:42;21.27;;;8.17;;
69542;SDS011;56762;49.494;11.768;2022-11-20T08:43:31;18.63;;;8.13;;
69542;SDS011;56762;49.494;11.768;2022-11-20T08:46:01;19.23;;;9.07;;
69542;SDS011;56762;49.494;11.768;2022-11-20T08:48:28;21.77;;;9.85;;
69542;SDS011;56762;49.494;11.768;2022-11-20T08:50:57;26.50;;;11.98;;
69542;SDS011;56762;49.494;11.768;2022-11-20T08:53:25;34.57;;;13.87;;
69542;SDS011;56762;49.494;11.768;2022-11-20T08:55:53;40.90;;;19.48;;
69542;SDS011;56762;49.494;11.768;2022-11-20T08:58:20;38.70;;;18.60;;
69542;SDS011;56762;49.494;11.768;2022-11-20T09:00:48;25.00;;;12.18;;
69542;SDS011;56762;49.494;11.768;2022-11-20T09:03:17;23.88;;;10.13;;
69542;SDS011;56762;49.494;11.768;2022-11-20T09:05:45;22.43;;;10.03;;
69542;SDS011;56762;49.494;11.768;2022-11-20T09:08:13;21.60;;;8.88;;
69542;SDS011;56762;49.494;11.768;2022-11-20T09:10:40;18.33;;;8.60;;
69542;SDS011;56762;49.494;11.768;2022-11-20T09:13:08;22.20;;;10.40;;
69542;SDS011;56762;49.494;11.768;2022-11-20T09:15:36;24.60;;;9.88;;
69542;SDS011;56762;49.494;11.768;2022-11-20T09:18:04;21.57;;;10.07;;
69542;SDS011;56762;49.494;11.768;2022-11-20T09:20:33;21.58;;;10.18;;
69542;SDS011;56762;49.494;11.768;2022-11-20T09:23:01;29.25;;;13.15;;
69542;SDS011;56762;49.494;11.768;2022-11-20T09:25:29;28.15;;;13.43;;
69542;SDS011;56762;49.494;11.768;2022-11-20T09:27:57;25.45;;;13.10;;
69542;SDS011;56762;49.494;11.768;2022-11-20T09:30:26;21.23;;;9.37;;
69542;SDS011;56762;49.494;11.768;2022-11-20T09:32:54;20.88;;;9.10;;
69542;SDS011;56762;49.494;11.768;2022-11-20T09:35:22;27.63;;;15.57;;
69542;SDS011;56762;49.494;11.768;2022-11-20T09:37:52;31.05;;;15.43;;
69542;SDS011;56762;49.494;11.768;2022-11-20T09:40:20;29.60;;;15.52;;
69542;SDS011;56762;49.494;11.768;2022-11-20T09:42:51;22.43;;;11.90;;
69542;SDS011;56762;49.494;11.768;2022-11-20T09:45:26;20.67;;;10.80;;
69542;SDS011;56762;49.494;11.768;2022-11-20T09:48:09;24.55;;;10.77;;
69542;SDS011;56762;49.494;11.768;2022-11-20T09:50:46;21.50;;;11.35;;
69542;SDS011;56762;49.494;11.768;2022-11-20T09:53:23;27.10;;;12.55;;
69542;SDS011;56762;49.494;11.768;2022-11-20T09:55:57;19.67;;;10.10;;
69542;SDS011;56762;49.494;11.768;2022-11-20T09:58:29;17.73;;;9.05;;
69542;SDS011;56762;49.494;11.768;2022-11-20T10:01:03;19.70;;;9.00;;
69542;SDS011;56762;49.494;11.768;2022-11-20T10:03:39;24.35;;;11.10;;
69542;SDS011;56762;49.494;11.768;2022-11-20T10:06:13;20.13;;;10.50;;
69542;SDS011;56762;49.494;11.768;2022-11-20T10:08:47;21.80;;;10.47;;
69542;SDS011;56762;49.494;11.768;2022-11-20T10:11:25;26.10;;;14.68;;
69542;SDS011;56762;49.494;11.768;2022-11-20T10:14:02;19.30;;;10.68;;
69542;SDS011;56762;49.494;11.768;2022-11-20T10:16:41;20.00;;;10.20;;
69542;SDS011;56762;49.494;11.768;2022-11-20T10:19:21;20.55;;;10.15;;
69542;SDS011;56762;49.494;11.768;2022-11-20T10:22:00;23.63;;;12.73;;
69542;SDS011;56762;49.494;11.768;2022-11-20T10:24:38;28.10;;;14.75;;
69542;SDS011;56762;49.494;11.768;2022-11-20T10:27:15;23.13;;;11.85;;
69542;SDS011;56762;49.494;11.768;2022-11-20T10:30:03;21.80;;;10.73;;
69542;SDS011;56762;49.494;11.768;2022-11-20T10:32:36;18.30;;;9.50;;
69542;SDS011;56762;49.494;11.768;2022-11-20T10:35:07;20.37;;;10.17;;
69542;SDS011;56762;49.494;11.768;2022-11-20T10:37:46;21.60;;;9.98;;
69542;SDS011;56762;49.494;11.768;2022-11-20T10:40:20;20.00;;;10.23;;
69542;SDS011;56762;49.494;11.768;2022-11-20T10:42:55;22.15;;;11.43;;
69542;SDS011;56762;49.494;11.768;2022-11-20T10:45:31;19.27;;;9.95;;
69542;SDS011;56762;49.494;11.768;2022-11-20T10:48:12;20.33;;;10.63;;
69542;SDS011;56762;49.494;11.768;2022-11-20T10:50:47;21.67;;;11.55;;
69542;SDS011;56762;49.494;11.768;2022-11-20T10:53:27;20.73;;;10.82;;
69542;SDS011;56762;49.494;11.768;2022-11-20T10:56:07;20.40;;;9.40;;
69542;SDS011;56762;49.494;11.768;2022-11-20T10:58:43;19.85;;;9.13;;
69542;SDS011;56762;49.494;11.768;2022-11-20T11:01:20;19.10;;;9.33;;
69542;SDS011;56762;49.494;11.768;2022-11-20T11:03:49;20.50;;;9.30;;
69542;SDS011;56762;49.494;11.768;2022-11-20T11:06:20;18.75;;;9.48;;
69542;SDS011;56762;49.494;11.768;2022-11-20T11:08:55;19.70;;;9.23;;
69542;SDS011;56762;49.494;11.768;2022-11-20T11:11:28;19.35;;;9.45;;
69542;SDS011;56762;49.494;11.768;2022-11-20T11:14:04;20.07;;;9.47;;
69542;SDS011;56762;49.494;11.768;2022-11-20T11:16:32;23.40;;;10.60;;
69542;SDS011;56762;49.494;11.768;2022-11-20T11:19:03;21.30;;;10.55;;
69542;SDS011;56762;49.494;11.768;2022-11-20T11:21:31;26.25;;;12.25;;
69542;SDS011;56762;49.494;11.768;2022-11-20T11:24:00;20.40;;;9.75;;
69542;SDS011;56762;49.494;11.768;2022-11-20T11:26:57;21.20;;;9.30;;
69542;SDS011;56762;49.494;11.768;2022-11-20T11:29:30;20.00;;;9.18;;
69542;SDS011;56762;49.494;11.768;2022-11-20T11:32:03;18.15;;;8.52;;
69542;SDS011;56762;49.494;11.768;2022-11-20T11:34:32;17.48;;;7.65;;
69542;SDS011;56762;49.494;11.768;2022-11-20T11:37:00;18.55;;;8.38;;
69542;SDS011;56762;49.494;11.768;2022-11-20T11:39:30;16.67;;;7.67;;
69542;SDS011;56762;49.494;11.768;2022-11-20T11:42:01;17.70;;;8.75;;
69542;SDS011;56762;49.494;11.768;2022-11-20T11:44:30;16.88;;;7.65;;
69542;SDS011;56762;49.494;11.768;2022-11-20T11:47:21;18.30;;;8.10;;
69542;SDS011;56762;49.494;11.768;2022-11-20T11:50:00;17.10;;;9.60;;
69542;SDS011;56762;49.494;11.768;2022-11-20T11:52:28;16.40;;;7.70;;
69542;SDS011;56762;49.494;11.768;2022-11-20T11:54:59;16.17;;;6.85;;
69542;SDS011;56762;49.494;11.768;2022-11-20T11:57:40;15.32;;;7.22;;
69542;SDS011;56762;49.494;11.768;2022-11-20T12:00:14;18.45;;;8.55;;
69542;SDS011;56762;49.494;11.768;2022-11-20T12:02:48;17.58;;;9.05;;
69542;SDS011;56762;49.494;11.768;2022-11-20T12:05:24;21.73;;;11.17;;
69542;SDS011;56762;49.494;11.768;2022-11-20T12:07:55;16.05;;;7.82;;
69542;SDS011;56762;49.494;11.768;2022-11-20T12:10:33;14.73;;;7.28;;
69542;SDS011;56762;49.494;11.768;2022-11-20T12:13:14;14.75;;;7.72;;
69542;SDS011;56762;49.494;11.768;2022-11-20T12:15:47;14.30;;;7.70;;
69542;SDS011;56762;49.494;11.768;2022-11-20T12:18:16;13.60;;;7.27;;
69542;SDS011;56762;49.494;11.768;2022-11-20T12:20:45;14.20;;;7.50;;
69542;SDS011;56762;49.494;11.768;2022-11-20T12:23:24;19.70;;;9.40;;
69542;SDS011;56762;49.494;11.768;2022-11-20T12:25:58;28.15;;;11.13;;
69542;SDS011;56762;49.494;11.768;2022-11-20T12:28:37;17.60;;;9.50;;
69542;SDS011;56762;49.494;11.768;2022-11-20T12:31:14;13.67;;;6.90;;
69542;SDS011;56762;49.494;11.768;2022-11-20T12:37:08;14.60;;;7.43;;
69542;SDS011;56762;49.494;11.768;2022-11-20T12:39:46;18.95;;;9.02;;
69542;SDS011;56762;49.494;11.768;2022-11-20T12:42:20;19.25;;;9.75;;
69542;SDS011;56762;49.494;11.768;2022-11-20T12:45:22;17.53;;;8.67;;
69542;SDS011;56762;49.494;11.768;2022-11-20T12:48:03;15.52;;;7.72;;
69542;SDS011;56762;49.494;11.768;2022-11-20T12:50:46;13.60;;;7.95;;
69542;SDS011;56762;49.494;11.768;2022-11-20T12:53:41;13.50;;;7.25;;
69542;SDS011;56762;49.494;11.768;2022-11-20T12:56:17;14.07;;;7.25;;
69542;SDS011;56762;49.494;11.768;2022-11-20T12:58:57;13.77;;;6.97;;
69542;SDS011;56762;49.494;11.768;2022-11-20T13:01:37;11.60;;;5.25;;
69542;SDS011;56762;49.494;11.768;2022-11-20T13:04:13;11.05;;;5.53;;
69542;SDS011;56762;49.494;11.768;2022-11-20T13:06:50;9.05;;;4.45;;
69542;SDS011;56762;49.494;11.768;2022-11-20T13:09:18;5.55;;;2.22;;
69542;SDS011;56762;49.494;11.768;2022-11-20T13:11:48;5.17;;;1.87;;
69542;SDS011;56762;49.494;11.768;2022-11-20T13:14:25;4.13;;;1.98;;
69542;SDS011;56762;49.494;11.768;2022-11-20T13:17:04;4.80;;;2.10;;
69542;SDS011;56762;49.494;11.768;2022-11-20T13:19:37;5.65;;;2.25;;
69542;SDS011;56762;49.494;11.768;2022-11-20T13:22:07;6.30;;;2.65;;
69542;SDS011;56762;49.494;11.768;2022-11-20T13:24:35;8.00;;;3.93;;
69542;SDS011;56762;49.494;11.768;2022-11-20T13:27:03;7.82;;;4.32;;
69542;SDS011;56762;49.494;11.768;2022-11-20T13:29:59;7.32;;;4.18;;
69542;SDS011;56762;49.494;11.768;2022-11-20T13:32:30;6.35;;;3.13;;
69542;SDS011;56762;49.494;11.768;2022-11-20T13:34:59;4.43;;;2.20;;
69542;SDS011;56762;49.494;11.768;2022-11-20T13:37:28;3.93;;;2.07;;
69542;SDS011;56762;49.494;11.768;2022-11-20T13:40:12;6.43;;;3.42;;
69542;SDS011;56762;49.494;11.768;2022-11-20T13:42:43;9.20;;;4.72;;
69542;SDS011;56762;49.494;11.768;2022-11-20T13:45:21;10.70;;;4.65;;
69542;SDS011;56762;49.494;11.768;2022-11-20T13:47:52;11.45;;;5.35;;
69542;SDS011;56762;49.494;11.768;2022-11-20T13:50:23;12.90;;;6.60;;
69542;SDS011;56762;49.494;11.768;2022-11-20T13:53:10;17.48;;;8.77;;
69542;SDS011;56762;49.494;11.768;2022-11-20T13:55:54;16.83;;;9.48;;
69542;SDS011;56762;49.494;11.768;2022-11-20T13:58:28;11.77;;;7.20;;
69542;SDS011;56762;49.494;11.768;2022-11-20T14:01:08;9.13;;;5.95;;
69542;SDS011;56762;49.494;11.768;2022-11-20T14:03:40;7.03;;;4.47;;
69542;SDS011;56762;49.494;11.768;2022-11-20T14:06:29;8.23;;;4.13;;
69542;SDS011;56762;49.494;11.768;2022-11-20T14:08:58;9.35;;;4.30;;
69542;SDS011;56762;49.494;11.768;2022-11-20T14:11:27;7.95;;;4.30;;
69542;SDS011;56762;49.494;11.768;2022-11-20T14:13:57;7.65;;;3.80;;
69542;SDS011;56762;49.494;11.768;2022-11-20T14:16:27;6.00;;;3.23;;
69542;SDS011;56762;49.494;11.768;2022-11-20T14:19:16;7.80;;;3.67;;
69542;SDS011;56762;49.494;11.768;2022-11-20T14:21:55;14.15;;;5.15;;
69542;SDS011;56762;49.494;11.768;2022-11-20T14:24:35;10.18;;;4.80;;
69542;SDS011;56762;49.494;11.768;2022-11-20T14:27:03;9.73;;;5.20;;
69542;SDS011;56762;49.494;11.768;2022-11-20T14:29:33;8.73;;;4.60;;
69542;SDS011;56762;49.494;11.768;2022-11-20T14:32:02;7.78;;;4.10;;
69542;SDS011;56762;49.494;11.768;2022-11-20T14:34:35;8.80;;;4.93;;
69542;SDS011;56762;49.494;11.768;2022-11-20T14:37:10;8.98;;;4.93;;
69542;SDS011;56762;49.494;11.768;2022-11-20T14:39:46;9.80;;;5.28;;
69542;SDS011;56762;49.494;11.768;2022-11-20T14:42:17;10.20;;;5.63;;
69542;SDS011;56762;49.494;11.768;2022-11-20T14:44:47;11.15;;;5.60;;
69542;SDS011;56762;49.494;11.768;2022-11-20T14:47:17;9.95;;;6.00;;
69542;SDS011;56762;49.494;11.768;2022-11-20T14:49:48;9.65;;;6.70;;
69542;SDS011;56762;49.494;11.768;2022-11-20T14:52:17;10.85;;;7.15;;